createdAt,value
2018-06-12T00:01:23.134Z,1.57
2018-06-12T00:03:51.487Z,1.27
2018-06-12T00:06:19.577Z,1.40
2018-06-12T00:08:47.644Z,1.37
2018-06-12T00:11:15.722Z,1.40
2018-06-12T00:13:43.786Z,1.40
2018-06-12T00:16:11.883Z,1.73
2018-06-12T00:18:39.966Z,1.50
2018-06-12T00:21:08.318Z,1.60
2018-06-12T00:23:36.359Z,1.40
2018-06-12T00:26:04.437Z,1.40
2018-06-12T00:28:32.495Z,1.57
2018-06-12T00:31:00.554Z,1.50
2018-06-12T00:33:28.612Z,1.40
2018-06-12T00:35:56.921Z,1.30
2018-06-12T00:38:24.965Z,1.67
2018-06-12T00:40:53.058Z,1.40
2018-06-12T00:43:21.362Z,1.30
2018-06-12T00:45:49.402Z,1.37
2018-06-12T00:48:17.479Z,1.33
2018-06-12T00:50:45.838Z,1.47
2018-06-12T00:53:13.895Z,1.40
2018-06-12T00:55:41.943Z,1.27
2018-06-12T00:58:10.550Z,1.17
2018-06-12T01:00:38.611Z,1.40
2018-06-12T01:03:06.710Z,1.40
2018-06-12T01:05:34.750Z,1.63
2018-06-12T01:08:02.823Z,1.63
2018-06-12T01:10:30.884Z,1.20
2018-06-12T01:12:58.966Z,1.30
2018-06-12T01:15:27.035Z,1.40
2018-06-12T01:17:55.094Z,1.60
2018-06-12T01:20:23.475Z,1.40
2018-06-12T01:22:51.521Z,1.57
2018-06-12T01:25:19.633Z,1.27
2018-06-12T01:27:47.686Z,1.30
2018-06-12T01:30:15.990Z,1.57
2018-06-12T01:32:44.043Z,1.20
2018-06-12T01:35:12.116Z,1.30
2018-06-12T01:37:40.278Z,1.77
2018-06-12T01:40:08.326Z,1.37
2018-06-12T01:42:36.414Z,1.40
2018-06-12T01:45:04.458Z,1.30
2018-06-12T01:47:32.522Z,1.40
2018-06-12T01:50:00.798Z,1.10
2018-06-12T01:52:29.122Z,1.43
2018-06-12T01:54:57.179Z,1.13
2018-06-12T01:57:25.242Z,1.30
2018-06-12T01:59:53.285Z,1.27
2018-06-12T02:02:21.350Z,1.10
2018-06-12T02:04:49.399Z,1.37
2018-06-12T02:07:17.465Z,1.30
2018-06-12T02:09:45.838Z,1.47
2018-06-12T02:12:14.215Z,1.50
2018-06-12T02:14:42.301Z,1.90
2018-06-12T02:17:10.371Z,1.20
2018-06-12T02:19:38.451Z,1.50
2018-06-12T02:22:06.511Z,1.40
2018-06-12T02:24:34.596Z,1.27
2018-06-12T02:27:02.643Z,1.53
2018-06-12T02:29:30.787Z,1.80
2018-06-12T02:31:58.834Z,1.37
2018-06-12T02:34:26.937Z,1.70
2018-06-12T02:36:54.990Z,1.80
2018-06-12T02:39:23.058Z,1.73
2018-06-12T02:41:51.106Z,1.60
2018-06-12T02:44:19.184Z,1.70
2018-06-12T02:46:47.488Z,1.50
2018-06-12T02:49:15.558Z,1.70
2018-06-12T02:51:43.645Z,2.13
2018-06-12T02:54:11.719Z,1.53
2018-06-12T02:56:39.773Z,1.40
2018-06-12T02:59:08.148Z,1.23
2018-06-12T03:01:36.206Z,1.57
2018-06-12T03:04:04.298Z,1.60
2018-06-12T03:06:32.383Z,1.30
2018-06-12T03:09:00.438Z,1.30
2018-06-12T03:11:28.483Z,2.03
2018-06-12T03:13:56.551Z,1.77
2018-06-12T03:16:24.638Z,1.60
2018-06-12T03:18:52.723Z,1.60
2018-06-12T03:21:20.787Z,1.37
2018-06-12T03:23:48.877Z,2.03
2018-06-12T03:26:16.938Z,1.87
2018-06-12T03:28:45.037Z,1.37
2018-06-12T03:31:13.094Z,1.40
2018-06-12T03:33:41.175Z,1.50
2018-06-12T03:36:09.260Z,1.40
2018-06-12T03:38:37.346Z,1.33
2018-06-12T03:41:05.425Z,1.17
2018-06-12T03:43:33.494Z,1.30
2018-06-12T03:46:01.555Z,1.40
2018-06-12T03:48:29.646Z,1.90
2018-06-12T03:50:57.738Z,1.50
2018-06-12T03:53:25.818Z,1.10
2018-06-12T03:55:53.958Z,1.20
2018-06-12T03:58:22.051Z,1.70
2018-06-12T04:00:50.129Z,1.93
2018-06-12T04:03:18.228Z,1.30
2018-06-12T04:05:46.307Z,1.23
2018-06-12T04:08:14.606Z,1.30
2018-06-12T04:10:42.686Z,1.20
2018-06-12T04:13:10.987Z,1.33
2018-06-12T04:15:39.087Z,1.20
2018-06-12T04:18:07.155Z,1.30
2018-06-12T04:20:35.279Z,1.40
2018-06-12T04:23:03.315Z,1.17
2018-06-12T04:25:31.447Z,1.40
2018-06-12T04:27:59.546Z,1.33
2018-06-12T04:30:27.619Z,1.10
2018-06-12T04:32:55.686Z,1.40
2018-06-12T04:35:23.762Z,1.60
2018-06-12T04:37:51.842Z,1.40
2018-06-12T04:40:19.736Z,1.80
2018-06-12T04:42:48.238Z,1.50
2018-06-12T04:45:16.327Z,1.70
2018-06-12T04:47:44.398Z,1.87
2018-06-12T04:50:12.482Z,1.57
2018-06-12T04:52:40.550Z,1.43
2018-06-12T04:55:08.618Z,1.60
2018-06-12T04:57:36.688Z,1.30
2018-06-12T05:00:04.763Z,1.57
2018-06-12T05:02:32.835Z,1.37
2018-06-12T05:05:00.907Z,1.30
2018-06-12T05:07:28.981Z,1.27
2018-06-12T05:09:57.087Z,1.30
2018-06-12T05:12:25.159Z,1.87
2018-06-12T05:14:53.238Z,2.10
2018-06-12T05:17:21.299Z,1.83
2018-06-12T05:19:49.403Z,1.50
2018-06-12T05:22:17.440Z,2.03
2018-06-12T05:24:45.510Z,2.20
2018-06-12T05:27:13.573Z,1.70
2018-06-12T05:29:41.651Z,2.03
2018-06-12T05:32:09.710Z,1.90
2018-06-12T05:34:37.785Z,1.90
2018-06-12T05:37:05.855Z,1.70
2018-06-12T05:39:33.935Z,1.60
2018-06-12T05:42:01.999Z,2.10
2018-06-12T05:44:30.087Z,2.33
2018-06-12T05:46:58.156Z,1.67
2018-06-12T05:49:26.233Z,1.77
2018-06-12T05:51:54.294Z,2.07
2018-06-12T05:54:22.367Z,2.20
2018-06-12T05:56:50.462Z,1.70
2018-06-12T05:59:18.798Z,1.93
2018-06-12T06:01:46.979Z,2.17
2018-06-12T06:04:15.071Z,1.93
2018-06-12T06:06:43.147Z,2.43
2018-06-12T06:09:11.202Z,1.83
2018-06-12T06:11:39.275Z,1.70
2018-06-12T06:14:07.359Z,1.80
2018-06-12T06:16:35.439Z,1.80
2018-06-12T06:19:03.507Z,1.90
2018-06-12T06:21:31.587Z,1.60
2018-06-12T06:24:00.135Z,1.70
2018-06-12T06:26:28.198Z,1.43
2018-06-12T06:28:56.273Z,1.60
2018-06-12T06:31:24.442Z,1.77
2018-06-12T06:33:52.515Z,1.93
2018-06-12T06:36:20.968Z,1.80
2018-06-12T06:38:48.954Z,1.87
2018-06-12T06:41:17.026Z,1.30
2018-06-12T06:43:45.094Z,1.67
2018-06-12T06:46:13.177Z,1.40
2018-06-12T06:48:41.239Z,1.40
2018-06-12T06:51:09.312Z,2.00
2018-06-12T06:53:37.776Z,1.40
2018-06-12T06:56:05.854Z,1.77
2018-06-12T06:58:33.912Z,1.50
2018-06-12T07:01:01.995Z,1.63
2018-06-12T07:03:30.075Z,1.50
2018-06-12T07:05:58.152Z,1.77
2018-06-12T07:08:26.508Z,1.63
2018-06-12T07:10:54.589Z,1.90
2018-06-12T07:13:22.991Z,1.80
2018-06-12T07:15:51.070Z,1.60
2018-06-12T07:18:19.134Z,1.50
2018-06-12T07:21:52.903Z,1.73
2018-06-12T07:24:20.970Z,1.70
2018-06-12T07:26:49.051Z,1.63
2018-06-12T07:29:17.122Z,1.27
2018-06-12T07:31:45.200Z,1.60
2018-06-12T07:34:13.266Z,1.70
2018-06-12T07:36:41.342Z,2.07
2018-06-12T07:39:09.406Z,1.63
2018-06-12T07:41:37.483Z,1.20
2018-06-12T07:44:05.552Z,1.33
2018-06-12T07:46:33.623Z,1.83
2018-06-12T07:49:01.683Z,1.40
2018-06-12T07:51:29.763Z,1.70
2018-06-12T07:53:57.835Z,1.40
2018-06-12T07:56:25.910Z,1.47
2018-06-12T07:58:53.987Z,1.40
2018-06-12T08:01:22.063Z,1.17
2018-06-12T08:03:50.122Z,1.23
2018-06-12T08:06:18.190Z,1.17
2018-06-12T08:08:46.361Z,1.20
2018-06-12T08:11:14.470Z,1.30
2018-06-12T08:13:42.495Z,1.27
2018-06-12T08:16:10.590Z,1.40
2018-06-12T08:18:38.669Z,1.60
2018-06-12T08:21:06.723Z,1.57
2018-06-12T08:23:34.804Z,1.37
2018-06-12T08:26:02.870Z,1.50
2018-06-12T08:28:30.955Z,1.37
2018-06-12T08:30:59.285Z,1.50
2018-06-12T08:33:27.355Z,1.43
2018-06-12T08:35:55.424Z,1.20
2018-06-12T08:38:23.498Z,1.30
2018-06-12T08:40:51.569Z,1.10
2018-06-12T08:43:19.643Z,1.40
2018-06-12T08:45:47.711Z,1.30
2018-06-12T08:48:15.782Z,1.23
2018-06-12T08:50:44.159Z,1.20
2018-06-12T08:53:12.234Z,1.50
2018-06-12T08:55:40.294Z,1.17
2018-06-12T08:58:08.468Z,1.03
2018-06-12T09:00:36.549Z,1.33
2018-06-12T09:03:04.629Z,1.47
2018-06-12T09:05:32.698Z,1.27
2018-06-12T09:08:00.782Z,1.10
2018-06-12T09:10:28.852Z,1.10
2018-06-12T09:12:56.922Z,1.10
2018-06-12T09:15:24.993Z,1.10
2018-06-12T09:17:53.066Z,1.40
2018-06-12T09:20:21.134Z,1.13
2018-06-12T09:22:49.206Z,1.00
2018-06-12T09:25:17.270Z,1.20
2018-06-12T09:27:49.216Z,1.20
2018-06-12T09:30:18.250Z,1.10
2018-06-12T09:32:46.686Z,1.10
2018-06-12T09:35:14.812Z,1.03
2018-06-12T09:37:43.138Z,1.23
2018-06-12T09:40:11.208Z,1.20
2018-06-12T09:42:39.369Z,1.10
2018-06-12T09:45:07.411Z,1.03
2018-06-12T09:47:35.726Z,1.53
2018-06-12T09:50:03.815Z,1.17
2018-06-12T09:52:31.894Z,1.33
2018-06-12T09:54:59.964Z,0.97
2018-06-12T09:57:28.041Z,1.33
2018-06-12T09:59:56.370Z,0.93
2018-06-12T10:02:24.458Z,1.43
2018-06-12T10:04:52.535Z,1.30
2018-06-12T10:07:20.619Z,1.00
2018-06-12T10:09:48.682Z,1.20
2018-06-12T10:12:16.752Z,1.20
2018-06-12T10:14:44.829Z,0.90
2018-06-12T10:17:12.900Z,1.30
2018-06-12T10:19:40.986Z,1.03
2018-06-12T10:22:09.062Z,1.23
2018-06-12T10:24:37.138Z,1.03
2018-06-12T10:27:05.388Z,1.23
2018-06-12T10:29:33.735Z,1.20
2018-06-12T10:32:01.840Z,1.13
2018-06-12T10:34:29.908Z,1.03
2018-06-12T10:36:58.007Z,1.30
2018-06-12T10:39:26.086Z,1.10
2018-06-12T10:41:54.158Z,1.20
2018-06-12T10:44:22.235Z,1.00
2018-06-12T10:46:50.304Z,1.00
2018-06-12T10:49:18.378Z,1.20
2018-06-12T10:51:46.446Z,1.20
2018-06-12T10:54:14.517Z,1.00
2018-06-12T10:56:42.587Z,0.93
2018-06-12T10:59:10.743Z,1.10
2018-06-12T11:01:38.690Z,0.87
2018-06-12T11:04:06.774Z,0.80
2018-06-12T11:06:34.831Z,1.20
2018-06-12T11:09:02.945Z,0.90
2018-06-12T11:11:30.866Z,1.20
2018-06-12T11:13:58.962Z,0.90
2018-06-12T11:16:27.258Z,0.83
2018-06-12T11:18:55.334Z,0.90
2018-06-12T11:21:23.422Z,1.00
2018-06-12T11:23:51.799Z,1.00
2018-06-12T11:26:19.863Z,1.20
2018-06-12T11:28:47.933Z,1.30
2018-06-12T11:31:16.298Z,1.43
2018-06-12T11:33:44.380Z,1.37
2018-06-12T11:36:12.442Z,1.20
2018-06-12T11:38:40.541Z,1.23
2018-06-12T11:41:08.606Z,1.03
2018-06-12T11:43:36.679Z,1.07
2018-06-12T11:46:05.559Z,1.37
2018-06-12T11:48:34.702Z,1.40
2018-06-12T11:51:03.079Z,1.27
2018-06-12T11:53:32.419Z,1.40
2018-06-12T11:56:00.696Z,1.50
2018-06-12T11:58:29.178Z,1.70
2018-06-12T12:00:57.267Z,1.30
2018-06-12T12:03:25.338Z,1.57
2018-06-12T12:05:53.422Z,1.60
2018-06-12T12:08:21.503Z,1.50
2018-06-12T12:10:49.587Z,1.30
2018-06-12T12:13:17.706Z,1.40
2018-06-12T12:15:45.846Z,1.23
2018-06-12T12:18:13.906Z,1.70
2018-06-12T12:20:41.987Z,1.43
2018-06-12T12:23:10.049Z,1.50
2018-06-12T12:25:38.134Z,1.67
2018-06-12T12:28:06.432Z,2.00
2018-06-12T12:30:34.511Z,1.87
2018-06-12T12:33:02.572Z,1.70
2018-06-12T12:35:30.644Z,1.70
2018-06-12T12:37:59.406Z,1.57
2018-06-12T12:40:31.338Z,1.33
2018-06-12T12:43:00.556Z,1.70
2018-06-12T12:45:30.667Z,1.40
2018-06-12T12:47:59.600Z,1.57
2018-06-12T12:50:27.739Z,1.10
2018-06-12T12:52:56.769Z,1.50
2018-06-12T12:55:24.858Z,2.00
2018-06-12T12:57:53.001Z,1.97
2018-06-12T13:00:21.067Z,1.70
2018-06-12T13:02:49.139Z,1.57
2018-06-12T13:05:17.206Z,1.37
2018-06-12T13:07:45.282Z,1.77
2018-06-12T13:10:13.362Z,1.83
2018-06-12T13:12:41.434Z,2.20
2018-06-12T13:15:09.499Z,2.37
2018-06-12T13:17:37.542Z,1.90
2018-06-12T13:20:05.608Z,2.20
2018-06-12T13:22:33.668Z,1.60
2018-06-12T13:25:01.727Z,1.57
2018-06-12T13:27:30.030Z,1.90
2018-06-12T13:29:58.427Z,2.00
2018-06-12T13:32:26.479Z,1.73
2018-06-12T13:34:54.547Z,1.60
2018-06-12T13:37:22.608Z,1.80
2018-06-12T13:39:50.911Z,1.40
2018-06-12T13:42:18.959Z,1.20
2018-06-12T13:44:47.022Z,1.67
2018-06-12T13:47:15.097Z,1.67
2018-06-12T13:49:43.160Z,1.83
2018-06-12T13:52:11.199Z,1.40
2018-06-12T13:54:39.316Z,1.60
2018-06-12T13:57:07.326Z,1.83
2018-06-12T13:59:35.383Z,1.60
2018-06-12T14:02:03.451Z,1.40
2018-06-12T14:04:31.503Z,1.83
2018-06-12T14:06:59.633Z,1.60
2018-06-12T14:09:27.638Z,1.73
2018-06-12T14:11:55.702Z,1.70
2018-06-12T14:14:24.287Z,1.67
2018-06-12T14:16:52.359Z,1.40
2018-06-12T14:19:20.415Z,1.70
2018-06-12T14:21:48.745Z,1.20
2018-06-12T14:24:17.083Z,1.60
2018-06-12T14:26:45.144Z,1.30
2018-06-12T14:29:13.222Z,1.67
2018-06-12T14:31:41.286Z,1.77
2018-06-12T14:34:09.326Z,1.23
2018-06-12T14:36:37.381Z,1.60
2018-06-12T14:39:08.050Z,1.40
2018-06-12T14:41:37.072Z,1.77
2018-06-12T14:44:05.737Z,1.27
2018-06-12T14:46:33.823Z,1.43
2018-06-12T14:49:01.851Z,1.33
2018-06-12T14:51:29.902Z,1.40
2018-06-12T14:53:57.962Z,1.53
2018-06-12T14:56:26.027Z,1.33
2018-06-12T14:58:54.078Z,1.23
2018-06-12T15:01:22.138Z,1.30
2018-06-12T15:03:50.186Z,1.23
2018-06-12T15:06:18.243Z,1.20
2018-06-12T15:08:46.291Z,1.13
2018-06-12T15:11:14.346Z,1.40
2018-06-12T15:13:42.431Z,1.73
2018-06-12T15:16:10.518Z,1.40
2018-06-12T15:18:38.603Z,1.27
2018-06-12T15:21:06.976Z,1.27
2018-06-12T15:23:35.039Z,1.17
2018-06-12T15:26:03.124Z,1.20
2018-06-12T15:28:31.179Z,1.53
2018-06-12T15:30:59.259Z,1.50
2018-06-12T15:33:27.788Z,1.60
2018-06-12T15:35:55.846Z,1.07
2018-06-12T15:38:23.919Z,1.20
2018-06-12T15:40:52.003Z,1.13
2018-06-12T15:43:20.068Z,1.40
2018-06-12T15:45:48.136Z,1.57
2018-06-12T15:48:16.202Z,1.13
2018-06-12T15:50:44.267Z,1.40
2018-06-12T15:53:12.442Z,1.30
2018-06-12T15:55:40.503Z,0.83
2018-06-12T15:58:08.569Z,1.17
2018-06-12T16:00:36.641Z,1.13
2018-06-12T16:03:04.711Z,1.20
2018-06-12T16:05:32.774Z,1.33
2018-06-12T16:08:00.842Z,1.10
2018-06-12T16:10:28.910Z,1.20
2018-06-12T16:12:56.979Z,1.20
2018-06-12T16:15:25.059Z,0.90
2018-06-12T16:17:53.443Z,1.20
2018-06-12T16:20:21.506Z,1.40
2018-06-12T16:22:49.898Z,1.20
2018-06-12T16:25:17.950Z,1.17
2018-06-12T16:27:46.026Z,1.07
2018-06-12T16:30:14.090Z,0.90
2018-06-12T16:32:42.158Z,0.80
2018-06-12T16:35:10.230Z,1.10
2018-06-12T16:37:38.296Z,1.00
2018-06-12T16:40:06.354Z,1.17
2018-06-12T16:42:34.430Z,0.87
2018-06-12T16:45:02.496Z,1.30
2018-06-12T16:47:30.438Z,1.30
2018-06-12T16:49:58.510Z,1.10
2018-06-12T16:52:26.594Z,1.17
2018-06-12T16:54:54.654Z,0.90
2018-06-12T16:57:22.721Z,0.90
2018-06-12T16:59:50.790Z,1.10
2018-06-12T17:02:18.870Z,1.20
2018-06-12T17:04:46.926Z,1.17
2018-06-12T17:07:14.995Z,1.10
2018-06-12T17:09:43.063Z,1.10
2018-06-12T17:12:11.143Z,0.93
2018-06-12T17:14:39.571Z,1.07
2018-06-12T17:17:07.631Z,0.90
2018-06-12T17:19:35.691Z,1.00
2018-06-12T17:22:03.755Z,1.00
2018-06-12T17:24:31.810Z,1.10
2018-06-12T17:26:59.881Z,0.90
2018-06-12T17:29:27.938Z,1.20
2018-06-12T17:31:56.226Z,0.90
2018-06-12T17:34:24.270Z,0.80
2018-06-12T17:36:52.336Z,1.30
2018-06-12T17:39:20.691Z,1.20
2018-06-12T17:41:48.996Z,1.30
2018-06-12T17:44:17.055Z,1.33
2018-06-12T17:46:45.106Z,1.07
2018-06-12T17:49:13.386Z,1.20
2018-06-12T17:51:41.447Z,1.10
2018-06-12T17:54:09.514Z,1.67
2018-06-12T17:56:37.572Z,1.50
2018-06-12T17:59:05.639Z,1.40
2018-06-12T18:01:33.691Z,1.90
2018-06-12T18:04:01.753Z,1.50
2018-06-12T18:06:30.027Z,1.00
2018-06-12T18:08:58.095Z,1.23
2018-06-12T18:11:26.152Z,1.20
2018-06-12T18:13:54.278Z,1.00
2018-06-12T18:16:22.307Z,1.20
2018-06-12T18:18:50.637Z,1.13
2018-06-12T18:21:18.704Z,1.40
2018-06-12T18:23:46.778Z,1.10
2018-06-12T18:26:15.126Z,1.00
2018-06-12T18:28:43.206Z,1.47
2018-06-12T18:31:11.271Z,1.13
2018-06-12T18:33:39.368Z,1.40
2018-06-12T18:36:07.722Z,0.83
2018-06-12T18:38:35.802Z,1.13
2018-06-12T18:41:03.878Z,1.17
2018-06-12T18:43:32.158Z,1.33
2018-06-12T18:46:00.227Z,1.10
2018-06-12T18:48:28.600Z,1.20
2018-06-12T18:50:56.670Z,1.30
2018-06-12T18:53:24.751Z,1.60
2018-06-12T18:55:52.815Z,1.40
2018-06-12T18:58:20.888Z,1.60
2018-06-12T19:00:48.947Z,1.43
2018-06-12T19:03:17.051Z,1.30
2018-06-12T19:05:45.166Z,1.30
2018-06-12T19:08:13.269Z,1.40
2018-06-12T19:10:41.330Z,1.43
2018-06-12T19:13:09.401Z,1.57
2018-06-12T19:15:37.491Z,1.73
2018-06-12T19:18:06.909Z,1.77
2018-06-12T19:20:35.493Z,1.67
2018-06-12T19:23:03.625Z,1.57
2018-06-12T19:25:31.687Z,1.77
2018-06-12T19:27:59.760Z,1.70
2018-06-12T19:30:27.817Z,1.90
2018-06-12T19:32:55.904Z,1.50
2018-06-12T19:35:23.998Z,1.80
2018-06-12T19:37:52.079Z,1.90
2018-06-12T19:40:20.203Z,1.50
2018-06-12T19:42:48.270Z,1.80
2018-06-12T19:45:16.366Z,1.33
2018-06-12T19:47:44.582Z,1.47
2018-06-12T19:50:13.309Z,1.63
2018-06-12T19:52:41.706Z,1.93
2018-06-12T19:55:09.790Z,1.60
2018-06-12T19:57:38.087Z,1.60
2018-06-12T20:00:06.210Z,1.80
2018-06-12T20:02:34.327Z,1.33
2018-06-12T20:05:02.448Z,1.50
2018-06-12T20:07:30.607Z,1.63
2018-06-12T20:09:58.714Z,1.23
2018-06-12T20:12:26.903Z,1.30
2018-06-12T20:14:55.011Z,1.30
2018-06-12T20:17:24.138Z,1.43
2018-06-12T20:19:52.383Z,1.50
2018-06-12T20:22:20.844Z,2.27
2018-06-12T20:24:49.217Z,1.40
2018-06-12T20:27:17.351Z,1.70
2018-06-12T20:29:45.450Z,1.70
2018-06-12T20:32:13.731Z,1.93
2018-06-12T20:34:41.887Z,1.70
2018-06-12T20:37:10.110Z,1.30
2018-06-12T20:39:38.591Z,1.50
2018-06-12T20:42:06.945Z,1.77
2018-06-12T20:44:35.314Z,1.50
2018-06-12T20:47:03.375Z,2.00
2018-06-12T20:49:31.427Z,1.60
2018-06-12T20:51:59.489Z,1.40
2018-06-12T20:54:27.554Z,1.50
2018-06-12T20:56:55.611Z,1.80
2018-06-12T20:59:23.680Z,2.10
2018-06-12T21:01:51.745Z,1.77
2018-06-12T21:04:19.811Z,1.90
2018-06-12T21:06:47.871Z,1.77
2018-06-12T21:09:15.914Z,1.80
2018-06-12T21:11:44.036Z,1.80
2018-06-12T21:14:12.104Z,1.70
2018-06-12T21:16:40.199Z,1.63
2018-06-12T21:19:08.259Z,1.67
2018-06-12T21:21:36.355Z,1.93
2018-06-12T21:24:04.572Z,1.60
2018-06-12T21:26:32.879Z,1.57
2018-06-12T21:29:00.955Z,1.60
2018-06-12T21:31:29.117Z,1.97
2018-06-12T21:33:57.091Z,1.50
2018-06-12T21:36:25.174Z,1.63
2018-06-12T21:38:53.242Z,1.93
2018-06-12T21:41:21.319Z,1.60
2018-06-12T21:43:49.414Z,1.60
2018-06-12T21:46:17.505Z,1.60
2018-06-12T21:48:45.606Z,1.37
2018-06-12T21:51:13.713Z,1.60
2018-06-12T21:53:41.810Z,1.53
2018-06-12T21:56:09.899Z,1.63
2018-06-12T21:58:37.971Z,1.60
2018-06-12T22:01:06.071Z,1.10
2018-06-12T22:03:34.339Z,1.50
2018-06-12T22:06:03.232Z,1.27
2018-06-12T22:08:31.299Z,1.70
2018-06-12T22:10:59.666Z,1.50
2018-06-12T22:13:27.746Z,1.60
2018-06-12T22:15:55.847Z,1.30
2018-06-12T22:18:23.919Z,1.57
2018-06-12T22:20:52.009Z,1.60
2018-06-12T22:23:20.069Z,1.30
2018-06-12T22:25:48.142Z,1.50
2018-06-12T22:28:16.210Z,1.90
2018-06-12T22:30:44.297Z,1.30
2018-06-12T22:33:12.691Z,1.30
2018-06-12T22:35:40.758Z,1.20
2018-06-12T22:38:08.839Z,1.47
2018-06-12T22:40:37.330Z,1.57
2018-06-12T22:43:05.658Z,1.10
2018-06-12T22:45:33.731Z,1.20
2018-06-12T22:48:01.811Z,1.20
2018-06-12T22:50:29.886Z,1.30
2018-06-12T22:52:58.240Z,1.13
2018-06-12T22:55:26.311Z,1.33
2018-06-12T22:57:54.635Z,1.70
2018-06-12T23:00:22.735Z,1.27
2018-06-12T23:02:50.826Z,1.20
2018-06-12T23:05:18.914Z,1.33
2018-06-12T23:07:47.041Z,1.30
2018-06-12T23:10:15.388Z,1.43
2018-06-12T23:12:43.678Z,1.30
2018-06-12T23:15:11.787Z,1.60
2018-06-12T23:17:39.944Z,1.20
2018-06-12T23:20:19.669Z,1.23
2018-06-12T23:22:47.808Z,1.40
2018-06-12T23:25:15.895Z,1.17
2018-06-12T23:27:44.094Z,1.47
2018-06-12T23:30:12.187Z,1.50
2018-06-12T23:32:40.364Z,1.10
2018-06-12T23:35:08.726Z,1.30
2018-06-12T23:37:36.799Z,1.20
2018-06-12T23:40:04.870Z,1.37
2018-06-12T23:42:32.983Z,1.10
2018-06-12T23:45:01.046Z,1.20
2018-06-12T23:47:29.119Z,1.13
2018-06-12T23:49:57.175Z,1.60
2018-06-12T23:52:25.305Z,1.17
2018-06-12T23:54:53.358Z,1.57
2018-06-12T23:57:21.470Z,1.37
2018-06-12T23:59:49.518Z,1.30
